sensor_id;sensor_type;location;lat;lon;timestamp;P1;durP1;ratioP1;P2;durP2;ratioP2
71183;SDS011;58887;51.980;4.464;2023-04-19T00:01:42;463.48;;;463.48;;
71183;SDS011;58887;51.980;4.464;2023-04-19T00:06:40;561.11;;;561.11;;
71183;SDS011;58887;51.980;4.464;2023-04-19T00:09:08;567.16;;;567.16;;
71183;SDS011;58887;51.980;4.464;2023-04-19T00:11:45;557.32;;;557.32;;
71183;SDS011;58887;51.980;4.464;2023-04-19T00:14:11;562.14;;;562.14;;
71183;SDS011;58887;51.980;4.464;2023-04-19T00:16:38;566.96;;;566.96;;
71183;SDS011;58887;51.980;4.464;2023-04-19T00:19:04;544.44;;;544.44;;
71183;SDS011;58887;51.980;4.464;2023-04-19T00:21:29;564.20;;;564.20;;
71183;SDS011;58887;51.980;4.464;2023-04-19T00:23:55;570.76;;;570.76;;
71183;SDS011;58887;51.980;4.464;2023-04-19T00:26:21;571.92;;;571.92;;
71183;SDS011;58887;51.980;4.464;2023-04-19T00:28:46;587.07;;;587.07;;
71183;SDS011;58887;51.980;4.464;2023-04-19T00:31:12;599.30;;;599.30;;
71183;SDS011;58887;51.980;4.464;2023-04-19T00:33:38;609.95;;;609.95;;
71183;SDS011;58887;51.980;4.464;2023-04-19T00:36:04;594.25;;;594.25;;
71183;SDS011;58887;51.980;4.464;2023-04-19T00:38:29;597.32;;;597.32;;
71183;SDS011;58887;51.980;4.464;2023-04-19T00:40:55;602.37;;;602.37;;
71183;SDS011;58887;51.980;4.464;2023-04-19T00:43:20;626.28;;;626.28;;
71183;SDS011;58887;51.980;4.464;2023-04-19T00:45:46;633.32;;;633.32;;
71183;SDS011;58887;51.980;4.464;2023-04-19T00:48:13;638.70;;;638.70;;
71183;SDS011;58887;51.980;4.464;2023-04-19T00:50:40;660.77;;;660.77;;
71183;SDS011;58887;51.980;4.464;2023-04-19T00:53:07;659.16;;;659.16;;
71183;SDS011;58887;51.980;4.464;2023-04-19T00:55:34;658.75;;;658.75;;
71183;SDS011;58887;51.980;4.464;2023-04-19T00:58:00;656.49;;;656.49;;
71183;SDS011;58887;51.980;4.464;2023-04-19T01:00:25;669.86;;;669.86;;
71183;SDS011;58887;51.980;4.464;2023-04-19T01:02:51;698.33;;;698.33;;
71183;SDS011;58887;51.980;4.464;2023-04-19T01:05:18;736.64;;;736.64;;
71183;SDS011;58887;51.980;4.464;2023-04-19T01:07:44;729.14;;;729.14;;
71183;SDS011;58887;51.980;4.464;2023-04-19T01:10:09;738.02;;;738.02;;
71183;SDS011;58887;51.980;4.464;2023-04-19T01:12:35;730.36;;;730.36;;
71183;SDS011;58887;51.980;4.464;2023-04-19T01:15:01;746.79;;;746.79;;
71183;SDS011;58887;51.980;4.464;2023-04-19T01:17:27;737.59;;;737.59;;
71183;SDS011;58887;51.980;4.464;2023-04-19T01:20:02;717.30;;;717.30;;
71183;SDS011;58887;51.980;4.464;2023-04-19T01:22:38;694.51;;;694.51;;
71183;SDS011;58887;51.980;4.464;2023-04-19T01:25:04;687.27;;;687.27;;
71183;SDS011;58887;51.980;4.464;2023-04-19T01:27:31;645.17;;;645.17;;
71183;SDS011;58887;51.980;4.464;2023-04-19T01:29:59;603.10;;;603.10;;
71183;SDS011;58887;51.980;4.464;2023-04-19T01:32:25;574.14;;;574.14;;
71183;SDS011;58887;51.980;4.464;2023-04-19T01:34:51;622.75;;;622.75;;
71183;SDS011;58887;51.980;4.464;2023-04-19T01:37:17;628.12;;;628.12;;
71183;SDS011;58887;51.980;4.464;2023-04-19T01:39:49;560.35;;;560.35;;
71183;SDS011;58887;51.980;4.464;2023-04-19T01:42:15;559.25;;;559.25;;
71183;SDS011;58887;51.980;4.464;2023-04-19T01:44:40;491.12;;;491.12;;
71183;SDS011;58887;51.980;4.464;2023-04-19T01:47:06;805.90;;;805.90;;
71183;SDS011;58887;51.980;4.464;2023-04-19T01:49:31;281.78;;;281.78;;
71183;SDS011;58887;51.980;4.464;2023-04-19T01:51:57;283.94;;;283.94;;
71183;SDS011;58887;51.980;4.464;2023-04-19T01:54:22;139.90;;;139.90;;
71183;SDS011;58887;51.980;4.464;2023-04-19T01:56:48;73.56;;;73.56;;
71183;SDS011;58887;51.980;4.464;2023-04-19T01:59:13;94.43;;;94.43;;
71183;SDS011;58887;51.980;4.464;2023-04-19T02:01:39;164.39;;;164.39;;
71183;SDS011;58887;51.980;4.464;2023-04-19T02:04:05;237.60;;;237.60;;
71183;SDS011;58887;51.980;4.464;2023-04-19T02:06:31;677.62;;;677.62;;
71183;SDS011;58887;51.980;4.464;2023-04-19T02:08:57;438.54;;;438.54;;
71183;SDS011;58887;51.980;4.464;2023-04-19T02:11:24;493.65;;;493.65;;
71183;SDS011;58887;51.980;4.464;2023-04-19T02:13:49;568.87;;;568.87;;
71183;SDS011;58887;51.980;4.464;2023-04-19T02:16:16;608.93;;;608.93;;
71183;SDS011;58887;51.980;4.464;2023-04-19T02:18:41;669.30;;;669.30;;
71183;SDS011;58887;51.980;4.464;2023-04-19T02:21:07;699.42;;;699.42;;
71183;SDS011;58887;51.980;4.464;2023-04-19T02:23:39;706.16;;;706.16;;
71183;SDS011;58887;51.980;4.464;2023-04-19T02:26:04;698.22;;;698.22;;
71183;SDS011;58887;51.980;4.464;2023-04-19T02:28:30;707.29;;;707.29;;
71183;SDS011;58887;51.980;4.464;2023-04-19T02:30:57;732.61;;;732.61;;
71183;SDS011;58887;51.980;4.464;2023-04-19T02:33:24;719.84;;;719.84;;
71183;SDS011;58887;51.980;4.464;2023-04-19T02:35:51;729.92;;;729.92;;
71183;SDS011;58887;51.980;4.464;2023-04-19T02:38:16;706.29;;;706.29;;
71183;SDS011;58887;51.980;4.464;2023-04-19T02:40:42;719.99;;;719.99;;
71183;SDS011;58887;51.980;4.464;2023-04-19T02:43:08;744.68;;;744.68;;
71183;SDS011;58887;51.980;4.464;2023-04-19T02:45:33;740.61;;;740.61;;
71183;SDS011;58887;51.980;4.464;2023-04-19T02:47:59;733.64;;;733.64;;
71183;SDS011;58887;51.980;4.464;2023-04-19T02:50:25;704.89;;;704.89;;
71183;SDS011;58887;51.980;4.464;2023-04-19T02:52:51;699.52;;;699.52;;
71183;SDS011;58887;51.980;4.464;2023-04-19T02:55:18;705.38;;;705.38;;
71183;SDS011;58887;51.980;4.464;2023-04-19T02:57:43;687.20;;;687.20;;
71183;SDS011;58887;51.980;4.464;2023-04-19T03:00:09;668.34;;;668.34;;
71183;SDS011;58887;51.980;4.464;2023-04-19T03:02:35;634.71;;;634.71;;
71183;SDS011;58887;51.980;4.464;2023-04-19T03:05:01;594.48;;;594.48;;
71183;SDS011;58887;51.980;4.464;2023-04-19T03:07:28;564.52;;;564.52;;
71183;SDS011;58887;51.980;4.464;2023-04-19T03:09:53;545.75;;;545.75;;
71183;SDS011;58887;51.980;4.464;2023-04-19T03:12:19;619.05;;;619.05;;
71183;SDS011;58887;51.980;4.464;2023-04-19T03:14:44;674.15;;;674.15;;
71183;SDS011;58887;51.980;4.464;2023-04-19T03:17:10;703.01;;;703.01;;
71183;SDS011;58887;51.980;4.464;2023-04-19T03:19:35;710.54;;;710.54;;
71183;SDS011;58887;51.980;4.464;2023-04-19T03:22:01;672.82;;;672.82;;
71183;SDS011;58887;51.980;4.464;2023-04-19T03:24:27;634.18;;;634.18;;
71183;SDS011;58887;51.980;4.464;2023-04-19T03:26:54;626.55;;;626.55;;
71183;SDS011;58887;51.980;4.464;2023-04-19T03:29:20;589.51;;;589.51;;
71183;SDS011;58887;51.980;4.464;2023-04-19T03:31:46;578.39;;;578.39;;
71183;SDS011;58887;51.980;4.464;2023-04-19T03:34:12;567.58;;;567.58;;
71183;SDS011;58887;51.980;4.464;2023-04-19T03:36:38;521.28;;;521.28;;
71183;SDS011;58887;51.980;4.464;2023-04-19T03:39:06;458.58;;;458.58;;
71183;SDS011;58887;51.980;4.464;2023-04-19T03:41:31;397.00;;;397.00;;
71183;SDS011;58887;51.980;4.464;2023-04-19T03:43:58;428.80;;;428.80;;
71183;SDS011;58887;51.980;4.464;2023-04-19T03:46:24;473.09;;;473.09;;
71183;SDS011;58887;51.980;4.464;2023-04-19T03:49:01;471.71;;;471.71;;
71183;SDS011;58887;51.980;4.464;2023-04-19T03:51:28;521.55;;;521.55;;
71183;SDS011;58887;51.980;4.464;2023-04-19T03:53:55;633.09;;;632.74;;
71183;SDS011;58887;51.980;4.464;2023-04-19T03:56:21;635.29;;;634.87;;
71183;SDS011;58887;51.980;4.464;2023-04-19T03:58:49;632.11;;;631.99;;
71183;SDS011;58887;51.980;4.464;2023-04-19T04:01:19;643.34;;;643.20;;
71183;SDS011;58887;51.980;4.464;2023-04-19T04:03:46;599.53;;;599.53;;
71183;SDS011;58887;51.980;4.464;2023-04-19T04:06:13;517.43;;;517.43;;
71183;SDS011;58887;51.980;4.464;2023-04-19T04:08:40;495.60;;;495.60;;
71183;SDS011;58887;51.980;4.464;2023-04-19T04:11:07;449.58;;;449.58;;
71183;SDS011;58887;51.980;4.464;2023-04-19T04:13:32;416.71;;;416.71;;
71183;SDS011;58887;51.980;4.464;2023-04-19T04:15:57;443.03;;;443.03;;
71183;SDS011;58887;51.980;4.464;2023-04-19T04:18:25;465.12;;;465.12;;
71183;SDS011;58887;51.980;4.464;2023-04-19T04:20:52;464.22;;;464.22;;
71183;SDS011;58887;51.980;4.464;2023-04-19T04:23:21;517.12;;;517.12;;
71183;SDS011;58887;51.980;4.464;2023-04-19T04:25:57;510.89;;;510.89;;
71183;SDS011;58887;51.980;4.464;2023-04-19T04:28:25;478.19;;;478.19;;
71183;SDS011;58887;51.980;4.464;2023-04-19T04:30:54;524.08;;;524.08;;
71183;SDS011;58887;51.980;4.464;2023-04-19T04:33:25;497.99;;;497.99;;
71183;SDS011;58887;51.980;4.464;2023-04-19T04:35:55;460.26;;;460.26;;
71183;SDS011;58887;51.980;4.464;2023-04-19T04:38:23;448.95;;;448.95;;
71183;SDS011;58887;51.980;4.464;2023-04-19T04:40:51;356.74;;;356.74;;
71183;SDS011;58887;51.980;4.464;2023-04-19T04:43:18;336.60;;;336.60;;
71183;SDS011;58887;51.980;4.464;2023-04-19T04:45:46;329.10;;;329.10;;
71183;SDS011;58887;51.980;4.464;2023-04-19T04:48:11;330.79;;;330.79;;
71183;SDS011;58887;51.980;4.464;2023-04-19T04:50:43;702.49;;;702.49;;
71183;SDS011;58887;51.980;4.464;2023-04-19T04:55:56;212.17;;;212.17;;
71183;SDS011;58887;51.980;4.464;2023-04-19T04:58:22;167.96;;;167.96;;
71183;SDS011;58887;51.980;4.464;2023-04-19T05:00:48;91.50;;;91.50;;
71183;SDS011;58887;51.980;4.464;2023-04-19T05:03:13;144.77;;;144.77;;
71183;SDS011;58887;51.980;4.464;2023-04-19T05:08:08;177.51;;;177.51;;
71183;SDS011;58887;51.980;4.464;2023-04-19T05:10:33;112.10;;;112.10;;
71183;SDS011;58887;51.980;4.464;2023-04-19T05:12:59;101.43;;;101.43;;
71183;SDS011;58887;51.980;4.464;2023-04-19T05:15:30;138.85;;;138.85;;
71183;SDS011;58887;51.980;4.464;2023-04-19T05:17:56;162.02;;;162.02;;
71183;SDS011;58887;51.980;4.464;2023-04-19T05:20:23;461.41;;;461.41;;
71183;SDS011;58887;51.980;4.464;2023-04-19T05:22:56;182.95;;;182.95;;
71183;SDS011;58887;51.980;4.464;2023-04-19T05:25:22;63.44;;;63.44;;
71183;SDS011;58887;51.980;4.464;2023-04-19T05:27:48;116.08;;;116.08;;
71183;SDS011;58887;51.980;4.464;2023-04-19T05:30:13;580.23;;;580.23;;
71183;SDS011;58887;51.980;4.464;2023-04-19T05:32:39;145.28;;;145.28;;
71183;SDS011;58887;51.980;4.464;2023-04-19T05:35:04;146.41;;;146.41;;
71183;SDS011;58887;51.980;4.464;2023-04-19T05:37:32;223.38;;;223.38;;
71183;SDS011;58887;51.980;4.464;2023-04-19T05:39:58;199.99;;;198.74;;
71183;SDS011;58887;51.980;4.464;2023-04-19T05:42:23;174.40;;;174.40;;
71183;SDS011;58887;51.980;4.464;2023-04-19T05:44:50;156.40;;;156.40;;
71183;SDS011;58887;51.980;4.464;2023-04-19T05:47:17;185.41;;;185.41;;
71183;SDS011;58887;51.980;4.464;2023-04-19T05:49:42;285.56;;;285.56;;
71183;SDS011;58887;51.980;4.464;2023-04-19T05:52:08;298.51;;;298.51;;
71183;SDS011;58887;51.980;4.464;2023-04-19T05:54:33;354.65;;;354.65;;
71183;SDS011;58887;51.980;4.464;2023-04-19T05:57:02;661.38;;;661.38;;
71183;SDS011;58887;51.980;4.464;2023-04-19T05:59:28;1166.24;;;1163.69;;
71183;SDS011;58887;51.980;4.464;2023-04-19T06:01:54;286.90;;;286.55;;
71183;SDS011;58887;51.980;4.464;2023-04-19T06:04:26;310.36;;;310.36;;
71183;SDS011;58887;51.980;4.464;2023-04-19T06:06:51;324.96;;;324.96;;
71183;SDS011;58887;51.980;4.464;2023-04-19T06:09:17;191.46;;;191.46;;
71183;SDS011;58887;51.980;4.464;2023-04-19T06:11:49;191.37;;;191.37;;
71183;SDS011;58887;51.980;4.464;2023-04-19T06:14:14;187.21;;;187.21;;
71183;SDS011;58887;51.980;4.464;2023-04-19T06:16:41;154.33;;;154.33;;
71183;SDS011;58887;51.980;4.464;2023-04-19T06:19:06;109.77;;;109.77;;
71183;SDS011;58887;51.980;4.464;2023-04-19T06:21:33;21.65;;;21.65;;
71183;SDS011;58887;51.980;4.464;2023-04-19T06:23:59;16.81;;;16.81;;
71183;SDS011;58887;51.980;4.464;2023-04-19T06:26:25;11.66;;;11.66;;
71183;SDS011;58887;51.980;4.464;2023-04-19T06:28:50;17.76;;;17.76;;
71183;SDS011;58887;51.980;4.464;2023-04-19T06:31:18;31.19;;;31.19;;
71183;SDS011;58887;51.980;4.464;2023-04-19T06:33:44;46.05;;;46.05;;
71183;SDS011;58887;51.980;4.464;2023-04-19T06:36:10;180.09;;;180.09;;
71183;SDS011;58887;51.980;4.464;2023-04-19T06:38:35;48.64;;;48.64;;
71183;SDS011;58887;51.980;4.464;2023-04-19T06:41:02;19.25;;;19.25;;
71183;SDS011;58887;51.980;4.464;2023-04-19T06:43:36;20.13;;;20.13;;
71183;SDS011;58887;51.980;4.464;2023-04-19T06:46:05;19.43;;;19.43;;
71183;SDS011;58887;51.980;4.464;2023-04-19T06:48:32;12.91;;;12.91;;
71183;SDS011;58887;51.980;4.464;2023-04-19T06:51:00;24.37;;;24.37;;
71183;SDS011;58887;51.980;4.464;2023-04-19T06:53:35;19.39;;;19.39;;
71183;SDS011;58887;51.980;4.464;2023-04-19T06:56:04;9.85;;;9.85;;
71183;SDS011;58887;51.980;4.464;2023-04-19T06:58:31;7.98;;;7.98;;
71183;SDS011;58887;51.980;4.464;2023-04-19T07:00:58;7.72;;;7.72;;
71183;SDS011;58887;51.980;4.464;2023-04-19T07:03:25;8.98;;;8.98;;
71183;SDS011;58887;51.980;4.464;2023-04-19T07:05:52;7.54;;;7.54;;
71183;SDS011;58887;51.980;4.464;2023-04-19T07:08:20;6.54;;;6.54;;
71183;SDS011;58887;51.980;4.464;2023-04-19T07:10:56;6.48;;;6.48;;
71183;SDS011;58887;51.980;4.464;2023-04-19T07:13:22;6.63;;;6.63;;
71183;SDS011;58887;51.980;4.464;2023-04-19T07:15:50;6.27;;;6.27;;
71183;SDS011;58887;51.980;4.464;2023-04-19T07:18:15;6.16;;;6.16;;
71183;SDS011;58887;51.980;4.464;2023-04-19T07:20:40;6.44;;;6.44;;
71183;SDS011;58887;51.980;4.464;2023-04-19T07:23:10;6.32;;;6.32;;
71183;SDS011;58887;51.980;4.464;2023-04-19T07:28:18;6.36;;;6.36;;
71183;SDS011;58887;51.980;4.464;2023-04-19T07:30:57;6.64;;;6.64;;
71183;SDS011;58887;51.980;4.464;2023-04-19T07:33:22;6.70;;;6.70;;
71183;SDS011;58887;51.980;4.464;2023-04-19T07:35:56;5.93;;;5.93;;
71183;SDS011;58887;51.980;4.464;2023-04-19T07:38:27;6.43;;;6.43;;
71183;SDS011;58887;51.980;4.464;2023-04-19T07:40:53;6.37;;;6.36;;
71183;SDS011;58887;51.980;4.464;2023-04-19T07:43:21;6.58;;;6.58;;
71183;SDS011;58887;51.980;4.464;2023-04-19T07:45:46;6.40;;;6.40;;
71183;SDS011;58887;51.980;4.464;2023-04-19T07:48:12;6.92;;;6.92;;
71183;SDS011;58887;51.980;4.464;2023-04-19T07:50:37;6.86;;;6.86;;
71183;SDS011;58887;51.980;4.464;2023-04-19T07:53:06;6.39;;;6.39;;
71183;SDS011;58887;51.980;4.464;2023-04-19T07:55:36;6.43;;;6.43;;
71183;SDS011;58887;51.980;4.464;2023-04-19T07:58:01;6.81;;;6.81;;
71183;SDS011;58887;51.980;4.464;2023-04-19T08:00:27;6.42;;;6.42;;
71183;SDS011;58887;51.980;4.464;2023-04-19T08:02:55;6.42;;;6.42;;
71183;SDS011;58887;51.980;4.464;2023-04-19T08:05:21;5.86;;;5.86;;
71183;SDS011;58887;51.980;4.464;2023-04-19T08:10:17;5.47;;;5.47;;
71183;SDS011;58887;51.980;4.464;2023-04-19T08:12:43;5.50;;;5.50;;
71183;SDS011;58887;51.980;4.464;2023-04-19T08:15:10;5.07;;;5.07;;
71183;SDS011;58887;51.980;4.464;2023-04-19T08:17:43;5.58;;;5.58;;
71183;SDS011;58887;51.980;4.464;2023-04-19T08:20:10;5.54;;;5.54;;
71183;SDS011;58887;51.980;4.464;2023-04-19T08:22:46;4.87;;;4.87;;
71183;SDS011;58887;51.980;4.464;2023-04-19T08:25:13;5.42;;;5.42;;
71183;SDS011;58887;51.980;4.464;2023-04-19T08:27:38;5.62;;;5.62;;
71183;SDS011;58887;51.980;4.464;2023-04-19T08:30:19;5.62;;;5.62;;
71183;SDS011;58887;51.980;4.464;2023-04-19T08:32:48;5.35;;;5.35;;
71183;SDS011;58887;51.980;4.464;2023-04-19T08:35:17;5.52;;;5.52;;
71183;SDS011;58887;51.980;4.464;2023-04-19T08:37:44;5.66;;;5.66;;
71183;SDS011;58887;51.980;4.464;2023-04-19T08:40:11;7.20;;;7.20;;
71183;SDS011;58887;51.980;4.464;2023-04-19T08:42:39;7.85;;;7.85;;
71183;SDS011;58887;51.980;4.464;2023-04-19T08:45:05;7.65;;;7.65;;
71183;SDS011;58887;51.980;4.464;2023-04-19T08:47:32;7.59;;;7.59;;
71183;SDS011;58887;51.980;4.464;2023-04-19T08:50:05;7.83;;;7.83;;
71183;SDS011;58887;51.980;4.464;2023-04-19T08:52:33;5.95;;;5.95;;
71183;SDS011;58887;51.980;4.464;2023-04-19T08:55:04;5.16;;;5.16;;
71183;SDS011;58887;51.980;4.464;2023-04-19T08:57:34;4.50;;;4.50;;
71183;SDS011;58887;51.980;4.464;2023-04-19T09:00:01;4.79;;;4.79;;
71183;SDS011;58887;51.980;4.464;2023-04-19T09:02:49;4.05;;;4.05;;
71183;SDS011;58887;51.980;4.464;2023-04-19T09:05:20;3.71;;;3.71;;
71183;SDS011;58887;51.980;4.464;2023-04-19T09:07:48;3.66;;;3.66;;
71183;SDS011;58887;51.980;4.464;2023-04-19T09:10:22;3.47;;;3.47;;
71183;SDS011;58887;51.980;4.464;2023-04-19T09:13:04;3.57;;;3.57;;
71183;SDS011;58887;51.980;4.464;2023-04-19T09:15:40;3.53;;;3.53;;
71183;SDS011;58887;51.980;4.464;2023-04-19T09:18:12;3.39;;;3.39;;
71183;SDS011;58887;51.980;4.464;2023-04-19T09:20:47;3.22;;;3.22;;
71183;SDS011;58887;51.980;4.464;2023-04-19T09:23:17;3.29;;;3.29;;
71183;SDS011;58887;51.980;4.464;2023-04-19T09:28:29;3.14;;;3.14;;
71183;SDS011;58887;51.980;4.464;2023-04-19T09:30:56;3.22;;;3.22;;
71183;SDS011;58887;51.980;4.464;2023-04-19T09:33:35;3.27;;;3.27;;
71183;SDS011;58887;51.980;4.464;2023-04-19T09:36:05;3.43;;;3.43;;
71183;SDS011;58887;51.980;4.464;2023-04-19T09:38:48;3.28;;;3.28;;
71183;SDS011;58887;51.980;4.464;2023-04-19T09:41:14;2.92;;;2.92;;
71183;SDS011;58887;51.980;4.464;2023-04-19T09:43:41;2.88;;;2.88;;
71183;SDS011;58887;51.980;4.464;2023-04-19T09:46:08;2.61;;;2.61;;
71183;SDS011;58887;51.980;4.464;2023-04-19T09:48:53;2.55;;;2.55;;
71183;SDS011;58887;51.980;4.464;2023-04-19T09:51:18;2.50;;;2.50;;
71183;SDS011;58887;51.980;4.464;2023-04-19T09:53:46;2.53;;;2.53;;
71183;SDS011;58887;51.980;4.464;2023-04-19T09:56:19;2.82;;;2.82;;
71183;SDS011;58887;51.980;4.464;2023-04-19T09:58:45;2.53;;;2.53;;
71183;SDS011;58887;51.980;4.464;2023-04-19T10:01:12;2.50;;;2.50;;
71183;SDS011;58887;51.980;4.464;2023-04-19T10:03:39;2.59;;;2.59;;
71183;SDS011;58887;51.980;4.464;2023-04-19T10:06:04;2.29;;;2.29;;
71183;SDS011;58887;51.980;4.464;2023-04-19T10:08:32;2.35;;;2.35;;
71183;SDS011;58887;51.980;4.464;2023-04-19T10:10:57;2.34;;;2.34;;
71183;SDS011;58887;51.980;4.464;2023-04-19T10:18:31;2.10;;;2.10;;
71183;SDS011;58887;51.980;4.464;2023-04-19T10:21:00;2.28;;;2.28;;
71183;SDS011;58887;51.980;4.464;2023-04-19T10:23:35;2.36;;;2.36;;
71183;SDS011;58887;51.980;4.464;2023-04-19T10:26:14;2.44;;;2.44;;
71183;SDS011;58887;51.980;4.464;2023-04-19T10:28:40;2.46;;;2.46;;
71183;SDS011;58887;51.980;4.464;2023-04-19T10:31:10;2.25;;;2.25;;
71183;SDS011;58887;51.980;4.464;2023-04-19T10:33:40;2.00;;;2.00;;
71183;SDS011;58887;51.980;4.464;2023-04-19T10:38:42;2.18;;;2.18;;
71183;SDS011;58887;51.980;4.464;2023-04-19T10:41:18;2.09;;;2.09;;
71183;SDS011;58887;51.980;4.464;2023-04-19T10:43:45;1.93;;;1.93;;
71183;SDS011;58887;51.980;4.464;2023-04-19T10:49:01;1.74;;;1.74;;
71183;SDS011;58887;51.980;4.464;2023-04-19T10:51:41;1.77;;;1.77;;
71183;SDS011;58887;51.980;4.464;2023-04-19T10:57:05;1.45;;;1.45;;
71183;SDS011;58887;51.980;4.464;2023-04-19T10:59:35;1.53;;;1.53;;
71183;SDS011;58887;51.980;4.464;2023-04-19T11:02:03;1.59;;;1.59;;
71183;SDS011;58887;51.980;4.464;2023-04-19T11:07:19;1.47;;;1.47;;
71183;SDS011;58887;51.980;4.464;2023-04-19T11:09:55;1.48;;;1.48;;
71183;SDS011;58887;51.980;4.464;2023-04-19T11:12:23;1.33;;;1.33;;
71183;SDS011;58887;51.980;4.464;2023-04-19T11:14:52;1.42;;;1.42;;
71183;SDS011;58887;51.980;4.464;2023-04-19T11:17:33;1.41;;;1.41;;
71183;SDS011;58887;51.980;4.464;2023-04-19T11:20:06;1.42;;;1.42;;
71183;SDS011;58887;51.980;4.464;2023-04-19T11:22:43;1.81;;;1.81;;
71183;SDS011;58887;51.980;4.464;2023-04-19T11:25:11;1.45;;;1.45;;
71183;SDS011;58887;51.980;4.464;2023-04-19T11:27:41;1.41;;;1.41;;
71183;SDS011;58887;51.980;4.464;2023-04-19T11:30:10;1.68;;;1.68;;
71183;SDS011;58887;51.980;4.464;2023-04-19T11:32:54;1.56;;;1.56;;
71183;SDS011;58887;51.980;4.464;2023-04-19T11:35:27;1.56;;;1.56;;
71183;SDS011;58887;51.980;4.464;2023-04-19T11:37:57;1.71;;;1.71;;
71183;SDS011;58887;51.980;4.464;2023-04-19T11:40:25;1.47;;;1.47;;
71183;SDS011;58887;51.980;4.464;2023-04-19T11:43:01;1.79;;;1.79;;
71183;SDS011;58887;51.980;4.464;2023-04-19T11:45:33;1.90;;;1.90;;
71183;SDS011;58887;51.980;4.464;2023-04-19T11:48:05;1.88;;;1.88;;
71183;SDS011;58887;51.980;4.464;2023-04-19T11:50:44;1.57;;;1.57;;
71183;SDS011;58887;51.980;4.464;2023-04-19T11:53:11;1.51;;;1.51;;
71183;SDS011;58887;51.980;4.464;2023-04-19T11:55:37;1.59;;;1.59;;
71183;SDS011;58887;51.980;4.464;2023-04-19T11:58:05;1.53;;;1.53;;
71183;SDS011;58887;51.980;4.464;2023-04-19T12:00:33;1.47;;;1.47;;
71183;SDS011;58887;51.980;4.464;2023-04-19T12:02:59;1.50;;;1.50;;
71183;SDS011;58887;51.980;4.464;2023-04-19T12:05:25;1.35;;;1.35;;
71183;SDS011;58887;51.980;4.464;2023-04-19T12:08:01;1.39;;;1.39;;
71183;SDS011;58887;51.980;4.464;2023-04-19T12:10:31;1.24;;;1.24;;
71183;SDS011;58887;51.980;4.464;2023-04-19T12:12:57;1.48;;;1.48;;
71183;SDS011;58887;51.980;4.464;2023-04-19T12:15:23;1.13;;;1.13;;
71183;SDS011;58887;51.980;4.464;2023-04-19T12:18:05;1.61;;;1.61;;
71183;SDS011;58887;51.980;4.464;2023-04-19T12:20:31;1.36;;;1.36;;
71183;SDS011;58887;51.980;4.464;2023-04-19T12:23:03;1.37;;;1.37;;
71183;SDS011;58887;51.980;4.464;2023-04-19T12:25:29;1.34;;;1.34;;
71183;SDS011;58887;51.980;4.464;2023-04-19T12:27:57;1.42;;;1.42;;
71183;SDS011;58887;51.980;4.464;2023-04-19T12:30:24;1.32;;;1.32;;
71183;SDS011;58887;51.980;4.464;2023-04-19T12:32:51;1.56;;;1.56;;
71183;SDS011;58887;51.980;4.464;2023-04-19T12:35:22;1.39;;;1.39;;
71183;SDS011;58887;51.980;4.464;2023-04-19T12:37:54;1.49;;;1.49;;
71183;SDS011;58887;51.980;4.464;2023-04-19T12:40:28;1.65;;;1.65;;
71183;SDS011;58887;51.980;4.464;2023-04-19T12:42:55;1.46;;;1.46;;
71183;SDS011;58887;51.980;4.464;2023-04-19T12:45:30;1.55;;;1.55;;
71183;SDS011;58887;51.980;4.464;2023-04-19T12:47:55;1.48;;;1.48;;
71183;SDS011;58887;51.980;4.464;2023-04-19T12:50:23;1.43;;;1.43;;
71183;SDS011;58887;51.980;4.464;2023-04-19T12:52:48;1.65;;;1.65;;
71183;SDS011;58887;51.980;4.464;2023-04-19T12:55:16;1.54;;;1.54;;
71183;SDS011;58887;51.980;4.464;2023-04-19T12:57:44;1.63;;;1.63;;
71183;SDS011;58887;51.980;4.464;2023-04-19T13:00:10;1.60;;;1.60;;
71183;SDS011;58887;51.980;4.464;2023-04-19T13:02:39;1.92;;;1.92;;
71183;SDS011;58887;51.980;4.464;2023-04-19T13:05:05;1.68;;;1.68;;
71183;SDS011;58887;51.980;4.464;2023-04-19T13:07:33;1.63;;;1.63;;
71183;SDS011;58887;51.980;4.464;2023-04-19T13:09:58;1.74;;;1.74;;
71183;SDS011;58887;51.980;4.464;2023-04-19T13:12:25;1.79;;;1.79;;
71183;SDS011;58887;51.980;4.464;2023-04-19T13:14:52;1.62;;;1.62;;
71183;SDS011;58887;51.980;4.464;2023-04-19T13:17:18;1.82;;;1.82;;
71183;SDS011;58887;51.980;4.464;2023-04-19T13:19:44;1.70;;;1.70;;
71183;SDS011;58887;51.980;4.464;2023-04-19T13:22:09;1.60;;;1.60;;
71183;SDS011;58887;51.980;4.464;2023-04-19T13:24:36;1.91;;;1.91;;
71183;SDS011;58887;51.980;4.464;2023-04-19T13:27:11;1.87;;;1.87;;
71183;SDS011;58887;51.980;4.464;2023-04-19T13:29:36;2.03;;;2.03;;
71183;SDS011;58887;51.980;4.464;2023-04-19T13:32:03;2.01;;;2.01;;
71183;SDS011;58887;51.980;4.464;2023-04-19T13:34:42;1.76;;;1.76;;
71183;SDS011;58887;51.980;4.464;2023-04-19T13:37:08;1.86;;;1.86;;
71183;SDS011;58887;51.980;4.464;2023-04-19T13:39:33;1.85;;;1.85;;
71183;SDS011;58887;51.980;4.464;2023-04-19T13:42:01;2.09;;;2.09;;
71183;SDS011;58887;51.980;4.464;2023-04-19T13:44:33;2.18;;;2.18;;
71183;SDS011;58887;51.980;4.464;2023-04-19T13:47:06;2.14;;;2.14;;
71183;SDS011;58887;51.980;4.464;2023-04-19T13:49:32;2.26;;;2.26;;
71183;SDS011;58887;51.980;4.464;2023-04-19T13:51:59;2.40;;;2.40;;
71183;SDS011;58887;51.980;4.464;2023-04-19T13:54:25;2.41;;;2.41;;
71183;SDS011;58887;51.980;4.464;2023-04-19T13:56:57;2.33;;;2.33;;
71183;SDS011;58887;51.980;4.464;2023-04-19T13:59:24;2.51;;;2.51;;
71183;SDS011;58887;51.980;4.464;2023-04-19T14:01:50;2.34;;;2.34;;
71183;SDS011;58887;51.980;4.464;2023-04-19T14:04:16;2.62;;;2.62;;
71183;SDS011;58887;51.980;4.464;2023-04-19T14:06:42;2.41;;;2.41;;
71183;SDS011;58887;51.980;4.464;2023-04-19T14:09:08;2.53;;;2.53;;
71183;SDS011;58887;51.980;4.464;2023-04-19T14:14:11;2.61;;;2.61;;
71183;SDS011;58887;51.980;4.464;2023-04-19T14:16:49;2.73;;;2.73;;
71183;SDS011;58887;51.980;4.464;2023-04-19T14:19:17;2.35;;;2.35;;
71183;SDS011;58887;51.980;4.464;2023-04-19T14:21:42;2.34;;;2.34;;
71183;SDS011;58887;51.980;4.464;2023-04-19T14:24:08;2.49;;;2.49;;
71183;SDS011;58887;51.980;4.464;2023-04-19T14:26:33;2.38;;;2.38;;
71183;SDS011;58887;51.980;4.464;2023-04-19T14:28:59;2.43;;;2.43;;
71183;SDS011;58887;51.980;4.464;2023-04-19T14:31:24;2.36;;;2.36;;
71183;SDS011;58887;51.980;4.464;2023-04-19T14:33:50;2.48;;;2.48;;
71183;SDS011;58887;51.980;4.464;2023-04-19T14:36:15;2.35;;;2.35;;
71183;SDS011;58887;51.980;4.464;2023-04-19T14:38:41;2.34;;;2.34;;
71183;SDS011;58887;51.980;4.464;2023-04-19T14:41:07;2.15;;;2.15;;
71183;SDS011;58887;51.980;4.464;2023-04-19T14:43:33;2.44;;;2.44;;
71183;SDS011;58887;51.980;4.464;2023-04-19T14:45:58;2.20;;;2.20;;
71183;SDS011;58887;51.980;4.464;2023-04-19T14:48:25;2.07;;;2.07;;
71183;SDS011;58887;51.980;4.464;2023-04-19T14:50:50;2.21;;;2.21;;
71183;SDS011;58887;51.980;4.464;2023-04-19T14:53:22;2.03;;;2.03;;
71183;SDS011;58887;51.980;4.464;2023-04-19T14:55:48;2.17;;;2.17;;
71183;SDS011;58887;51.980;4.464;2023-04-19T14:58:20;2.02;;;2.02;;
71183;SDS011;58887;51.980;4.464;2023-04-19T15:00:47;2.09;;;2.09;;
71183;SDS011;58887;51.980;4.464;2023-04-19T15:03:19;2.16;;;2.16;;